createdAt,value
2022-09-18T00:01:33.737Z,32.70
2022-09-18T00:04:03.969Z,39.90
2022-09-18T00:06:34.247Z,40.40
2022-09-18T00:09:03.505Z,39.80
2022-09-18T00:11:35.308Z,39.20
2022-09-18T00:14:04.581Z,42.30
2022-09-18T00:16:32.030Z,36.80
2022-09-18T00:18:59.965Z,37.70
2022-09-18T00:21:28.932Z,34.10
2022-09-18T00:23:58.693Z,32.30
2022-09-18T00:26:26.630Z,30.40
2022-09-18T00:28:59.461Z,32.80
2022-09-18T00:31:30.204Z,31.90
2022-09-18T00:34:00.690Z,32.80
2022-09-18T00:36:32.706Z,34.40
2022-09-18T00:39:00.440Z,40.80
2022-09-18T00:41:31.841Z,47.50
2022-09-18T00:44:37.931Z,50.70
2022-09-18T00:47:16.306Z,51.30
2022-09-18T00:49:56.456Z,52.20
2022-09-18T00:52:28.877Z,53.50
2022-09-18T00:55:09.819Z,59.90
2022-09-18T00:57:43.515Z,68.10
2022-09-18T01:00:12.369Z,73.00
2022-09-18T01:02:41.418Z,89.10
2022-09-18T01:05:10.514Z,90.20
2022-09-18T01:07:52.754Z,95.80
2022-09-18T01:10:59.135Z,99.90
2022-09-18T01:13:59.200Z,99.90
2022-09-18T01:16:40.242Z,99.90
2022-09-18T01:19:52.621Z,99.90
2022-09-18T01:22:54.159Z,99.90
2022-09-18T01:25:27.473Z,99.90
2022-09-18T01:28:19.480Z,99.90
2022-09-18T01:30:50.669Z,99.90
2022-09-18T01:33:33.504Z,99.90
2022-09-18T01:36:05.015Z,99.90
2022-09-18T01:38:41.344Z,95.00
2022-09-18T01:41:16.970Z,97.00
2022-09-18T01:43:48.621Z,96.20
2022-09-18T01:46:19.929Z,91.70
2022-09-18T01:48:57.944Z,97.10
2022-09-18T01:51:32.211Z,97.70
2022-09-18T01:54:06.146Z,97.60
2022-09-18T01:56:51.403Z,97.80
2022-09-18T01:59:25.460Z,96.70
2022-09-18T02:02:05.256Z,92.50
2022-09-18T02:04:37.705Z,93.40
2022-09-18T02:07:19.559Z,99.90
2022-09-18T02:09:48.253Z,91.70
2022-09-18T02:12:19.606Z,82.90
2022-09-18T02:14:56.231Z,77.70
2022-09-18T02:17:55.551Z,72.60
2022-09-18T02:20:31.333Z,70.60
2022-09-18T02:23:03.395Z,66.70
2022-09-18T02:25:38.121Z,60.20
2022-09-18T02:28:07.397Z,55.50
2022-09-18T02:30:39.223Z,54.90
2022-09-18T02:33:27.117Z,50.10
2022-09-18T02:36:10.683Z,49.10
2022-09-18T02:38:53.229Z,49.50
2022-09-18T02:41:49.624Z,48.40
2022-09-18T02:44:30.057Z,48.80
2022-09-18T02:47:11.258Z,46.30
2022-09-18T02:49:53.236Z,40.40
2022-09-18T02:52:32.555Z,41.80
2022-09-18T02:55:13.118Z,42.10
2022-09-18T02:57:55.605Z,39.00
2022-09-18T03:00:24.048Z,33.90
2022-09-18T03:02:51.997Z,31.40
2022-09-18T03:05:32.569Z,31.90
2022-09-18T03:08:02.780Z,29.80
2022-09-18T03:10:31.811Z,25.20
2022-09-18T03:12:59.268Z,22.40
2022-09-18T03:15:27.073Z,22.90
2022-09-18T03:17:54.379Z,22.40
2022-09-18T03:20:21.670Z,22.40
2022-09-18T03:22:50.055Z,19.00
2022-09-18T03:25:17.886Z,20.10
2022-09-18T03:27:45.298Z,19.50
2022-09-18T03:30:18.380Z,19.80
2022-09-18T03:32:45.903Z,18.60
2022-09-18T03:35:13.609Z,18.60
2022-09-18T03:37:41.075Z,18.60
2022-09-18T03:40:10.984Z,19.80
2022-09-18T03:42:38.440Z,19.50
2022-09-18T03:45:09.316Z,18.10
2022-09-18T03:47:36.942Z,16.80
2022-09-18T03:50:07.957Z,18.80
2022-09-18T03:52:37.510Z,18.20
2022-09-18T03:55:32.522Z,20.00
2022-09-18T03:58:18.991Z,17.40
2022-09-18T04:01:05.343Z,17.10
2022-09-18T04:03:44.938Z,14.70
2022-09-18T04:06:30.559Z,14.90
2022-09-18T04:09:11.449Z,14.40
2022-09-18T04:11:44.889Z,15.20
2022-09-18T04:14:13.299Z,14.80
2022-09-18T04:16:40.881Z,14.40
2022-09-18T04:19:09.400Z,15.00
2022-09-18T04:21:39.083Z,13.70
2022-09-18T04:24:06.901Z,16.20
2022-09-18T04:26:37.662Z,13.50
2022-09-18T04:29:06.282Z,15.40
2022-09-18T04:31:35.562Z,14.00
2022-09-18T04:34:08.050Z,15.00
2022-09-18T04:36:36.280Z,14.80
2022-09-18T04:39:04.558Z,14.30
2022-09-18T04:41:32.246Z,13.00
2022-09-18T04:43:59.691Z,13.00
2022-09-18T04:46:26.997Z,13.90
2022-09-18T04:48:54.722Z,13.20
2022-09-18T04:51:25.847Z,13.20
2022-09-18T04:53:53.319Z,16.40
2022-09-18T04:56:20.856Z,18.50
2022-09-18T04:58:51.352Z,17.00
2022-09-18T05:01:19.404Z,18.90
2022-09-18T05:03:47.343Z,18.50
2022-09-18T05:06:24.493Z,18.10
2022-09-18T05:08:52.357Z,16.80
2022-09-18T05:11:20.711Z,14.80
2022-09-18T05:13:49.264Z,16.50
2022-09-18T05:16:17.432Z,17.20
2022-09-18T05:18:56.925Z,15.80
2022-09-18T05:21:25.332Z,16.30
2022-09-18T05:23:52.654Z,14.00
2022-09-18T05:26:19.991Z,13.00
2022-09-18T05:28:51.005Z,13.90
2022-09-18T05:31:20.635Z,13.50
2022-09-18T05:33:48.263Z,13.70
2022-09-18T05:36:15.648Z,15.20
2022-09-18T05:38:46.874Z,15.00
2022-09-18T05:41:14.469Z,14.00
2022-09-18T05:43:45.171Z,12.00
2022-09-18T05:46:14.845Z,10.80
2022-09-18T05:48:53.086Z,9.20
2022-09-18T05:51:20.566Z,8.80
2022-09-18T05:53:48.713Z,8.50
2022-09-18T05:56:21.987Z,8.40
2022-09-18T05:58:50.250Z,8.20
2022-09-18T06:01:17.931Z,6.70
2022-09-18T06:04:10.022Z,6.00
2022-09-18T06:06:45.371Z,7.50
2022-09-18T06:09:15.688Z,7.00
2022-09-18T06:11:43.041Z,6.70
2022-09-18T06:14:10.791Z,4.90
2022-09-18T06:16:42.337Z,7.30
2022-09-18T06:19:11.039Z,5.90
2022-09-18T06:21:38.770Z,5.60
2022-09-18T06:24:12.701Z,3.40
2022-09-18T06:26:49.998Z,3.00
2022-09-18T06:29:17.778Z,3.30
2022-09-18T06:31:50.545Z,2.20
2022-09-18T06:34:27.972Z,1.00
2022-09-18T06:37:03.029Z,1.50
2022-09-18T06:39:52.030Z,1.00
2022-09-18T06:42:45.282Z,1.00
2022-09-18T06:45:30.060Z,1.00
2022-09-18T06:48:04.270Z,1.00
2022-09-18T06:50:33.679Z,1.00
2022-09-18T06:53:11.454Z,1.00
2022-09-18T06:55:49.149Z,1.00
2022-09-18T06:58:17.988Z,1.00
2022-09-18T07:00:46.423Z,1.00
2022-09-18T07:03:20.216Z,1.00
2022-09-18T07:06:14.357Z,1.00
2022-09-18T07:08:45.564Z,1.00
2022-09-18T07:11:24.211Z,1.00
2022-09-18T07:13:53.407Z,1.00
2022-09-18T07:16:20.865Z,1.00
2022-09-18T07:18:49.040Z,1.00
2022-09-18T07:21:19.761Z,1.00
2022-09-18T07:23:47.275Z,1.00
2022-09-18T07:26:14.970Z,1.00
2022-09-18T07:28:42.974Z,1.00
2022-09-18T07:31:17.350Z,1.00
2022-09-18T07:33:52.012Z,1.00
2022-09-18T07:36:21.124Z,1.00
2022-09-18T07:38:53.102Z,1.00
2022-09-18T07:41:22.076Z,1.00
2022-09-18T07:43:50.903Z,1.00
2022-09-18T07:46:19.273Z,1.00
2022-09-18T07:48:50.153Z,1.00
2022-09-18T07:51:26.402Z,1.00
2022-09-18T07:53:55.972Z,1.00
2022-09-18T07:56:46.878Z,1.00
2022-09-18T07:59:19.081Z,1.00
2022-09-18T08:01:51.607Z,1.00
2022-09-18T08:04:19.026Z,1.00
2022-09-18T08:07:15.829Z,1.00
2022-09-18T08:10:12.202Z,1.00
2022-09-18T08:13:04.391Z,1.00
2022-09-18T08:16:04.210Z,1.00
2022-09-18T08:18:50.799Z,1.00
2022-09-18T08:21:40.818Z,1.00
2022-09-18T08:24:12.152Z,1.00
2022-09-18T08:26:40.095Z,1.00
2022-09-18T08:29:08.377Z,1.00
2022-09-18T08:31:38.589Z,1.00
2022-09-18T08:34:11.081Z,1.00
2022-09-18T08:36:39.825Z,1.00
2022-09-18T08:39:22.968Z,1.00
2022-09-18T08:42:57.470Z,1.00
2022-09-18T08:45:45.965Z,1.00
2022-09-18T08:48:24.779Z,1.00
2022-09-18T08:51:31.041Z,1.00
2022-09-18T08:54:27.886Z,1.00
2022-09-18T08:57:29.004Z,1.00
2022-09-18T09:00:19.799Z,1.00
2022-09-18T09:03:13.520Z,1.00
2022-09-18T09:05:53.770Z,1.00
2022-09-18T09:08:43.713Z,1.00
2022-09-18T09:11:38.239Z,1.00
2022-09-18T09:14:56.692Z,1.00
2022-09-18T09:17:50.103Z,1.00
2022-09-18T09:20:30.829Z,1.00
2022-09-18T09:23:15.119Z,1.00
2022-09-18T09:26:06.690Z,1.00
2022-09-18T09:29:15.867Z,1.00
2022-09-18T09:31:55.236Z,1.00
2022-09-18T09:34:57.822Z,1.00
2022-09-18T09:37:46.300Z,2.00
2022-09-18T09:40:45.447Z,1.00
2022-09-18T09:43:29.585Z,1.00
2022-09-18T09:46:06.997Z,1.00
2022-09-18T09:48:52.275Z,1.00
2022-09-18T09:51:58.929Z,1.00
2022-09-18T09:54:28.498Z,1.00
2022-09-18T09:57:13.093Z,1.00
2022-09-18T10:00:14.391Z,1.00
2022-09-18T10:07:40.935Z,1.00
2022-09-18T10:10:15.975Z,1.00
2022-09-18T10:12:59.020Z,1.00
2022-09-18T10:15:42.358Z,1.00
2022-09-18T10:18:26.394Z,1.00
2022-09-18T10:21:02.497Z,1.00
2022-09-18T10:23:48.747Z,1.00
2022-09-18T10:26:58.695Z,1.00
2022-09-18T10:29:27.504Z,1.00
2022-09-18T10:32:01.236Z,1.00
2022-09-18T10:34:38.290Z,1.00
2022-09-18T10:37:31.212Z,1.00
2022-09-18T10:40:05.432Z,1.00
2022-09-18T10:42:37.686Z,1.00
2022-09-18T10:45:42.200Z,1.00
2022-09-18T10:48:28.407Z,1.00
2022-09-18T10:51:00.030Z,1.00
2022-09-18T10:54:25.498Z,1.00
2022-09-18T10:57:28.535Z,1.00
2022-09-18T10:59:59.544Z,1.00
2022-09-18T11:02:32.929Z,1.00
2022-09-18T11:05:03.099Z,1.00
2022-09-18T11:07:40.204Z,1.00
2022-09-18T11:10:10.525Z,1.00
2022-09-18T11:12:52.363Z,1.00
2022-09-18T11:15:36.986Z,1.00
2022-09-18T11:18:14.108Z,1.00
2022-09-18T11:20:45.667Z,1.00
2022-09-18T11:23:34.122Z,1.00
2022-09-18T11:26:28.132Z,1.00
2022-09-18T11:29:19.425Z,1.00
2022-09-18T11:31:56.142Z,1.00
2022-09-18T11:34:40.091Z,1.00
2022-09-18T11:37:25.051Z,1.00
2022-09-18T11:40:00.551Z,1.00
2022-09-18T11:42:30.337Z,1.00
2022-09-18T11:45:49.584Z,1.00
2022-09-18T11:48:34.774Z,1.00
2022-09-18T11:51:10.163Z,1.00
2022-09-18T11:53:43.503Z,1.00
2022-09-18T11:56:19.533Z,1.00
2022-09-18T11:59:00.602Z,1.00
2022-09-18T12:01:49.284Z,1.00
2022-09-18T12:04:49.713Z,1.00
2022-09-18T12:07:52.639Z,1.00
2022-09-18T12:10:45.472Z,1.00
2022-09-18T12:13:32.627Z,1.00
2022-09-18T12:16:13.115Z,1.00
2022-09-18T12:18:59.570Z,1.00
2022-09-18T12:21:58.211Z,1.00
2022-09-18T12:24:26.092Z,1.00
2022-09-18T12:27:11.160Z,1.00
2022-09-18T12:29:57.886Z,1.00
2022-09-18T12:33:06.020Z,1.00
2022-09-18T12:36:04.963Z,1.00
2022-09-18T12:38:57.595Z,1.00
2022-09-18T12:41:42.697Z,1.00
2022-09-18T12:44:35.489Z,1.00
2022-09-18T12:47:25.875Z,1.00
2022-09-18T12:50:12.186Z,1.00
2022-09-18T12:52:55.172Z,1.00
2022-09-18T12:55:46.779Z,1.00
2022-09-18T12:58:34.413Z,1.00
2022-09-18T13:01:13.987Z,1.00
2022-09-18T13:03:44.340Z,1.00
2022-09-18T13:06:16.598Z,1.00
2022-09-18T13:08:50.562Z,1.00
2022-09-18T13:11:33.177Z,1.00
2022-09-18T13:14:14.986Z,1.00
2022-09-18T13:16:50.123Z,1.00
2022-09-18T13:19:29.698Z,1.60
2022-09-18T13:22:00.276Z,9.20
2022-09-18T13:24:34.284Z,23.70
2022-09-18T13:27:05.182Z,28.70
2022-09-18T13:29:53.764Z,20.80
2022-09-18T13:32:42.064Z,19.10
2022-09-18T13:35:21.135Z,7.90
2022-09-18T13:38:04.180Z,13.00
2022-09-18T13:40:56.515Z,1.00
2022-09-18T13:43:28.739Z,1.00
2022-09-18T13:46:03.439Z,1.00
2022-09-18T13:48:39.796Z,1.00
2022-09-18T13:51:23.949Z,1.00
2022-09-18T13:54:13.845Z,1.00
2022-09-18T13:57:06.741Z,1.00
2022-09-18T14:00:00.553Z,1.00
2022-09-18T14:02:40.618Z,1.00
2022-09-18T14:05:30.074Z,1.00
2022-09-18T14:08:23.932Z,1.00
2022-09-18T14:11:24.069Z,1.00
2022-09-18T14:13:59.396Z,4.80
2022-09-18T14:16:42.129Z,9.90
2022-09-18T14:19:34.814Z,17.90
2022-09-18T14:22:10.836Z,23.20
2022-09-18T14:24:55.131Z,28.80
2022-09-18T14:27:54.962Z,57.10
2022-09-18T14:30:31.335Z,39.00
2022-09-18T14:33:24.322Z,80.00
2022-09-18T14:36:17.098Z,99.90
2022-09-18T14:38:46.119Z,99.90
2022-09-18T14:41:31.103Z,99.90
2022-09-18T14:44:16.157Z,99.90
2022-09-18T14:47:10.432Z,99.90
2022-09-18T14:49:45.317Z,99.90
2022-09-18T14:52:32.385Z,99.90
2022-09-18T14:55:13.227Z,99.90
2022-09-18T14:58:23.198Z,1.00
2022-09-18T15:00:59.674Z,1.00
2022-09-18T15:03:37.932Z,1.00
2022-09-18T15:06:25.700Z,1.00
2022-09-18T15:08:58.091Z,1.00
2022-09-18T15:11:46.669Z,1.00
2022-09-18T15:14:45.580Z,1.00
2022-09-18T15:17:19.449Z,2.90
2022-09-18T15:20:17.073Z,99.90
2022-09-18T15:25:53.540Z,1.00
2022-09-18T15:28:27.872Z,1.00
2022-09-18T15:31:05.164Z,1.00
2022-09-18T15:34:11.820Z,1.00
2022-09-18T15:37:03.170Z,1.00
2022-09-18T15:39:38.465Z,1.00
2022-09-18T15:42:18.275Z,1.00
2022-09-18T15:44:54.662Z,1.00
2022-09-18T15:47:35.198Z,1.00
2022-09-18T15:50:33.627Z,1.00
2022-09-18T15:53:23.569Z,1.00
2022-09-18T15:56:01.326Z,1.00
2022-09-18T15:58:38.557Z,1.00
2022-09-18T16:01:08.924Z,1.00
2022-09-18T16:03:39.841Z,1.00
2022-09-18T16:06:24.349Z,1.00
2022-09-18T16:08:55.640Z,1.00
2022-09-18T16:11:40.775Z,1.00
2022-09-18T16:14:36.658Z,1.00
2022-09-18T16:17:31.920Z,1.00
2022-09-18T16:20:21.234Z,1.00
2022-09-18T16:22:51.997Z,1.00
2022-09-18T16:25:27.660Z,1.00
2022-09-18T16:27:58.072Z,1.00
2022-09-18T16:30:28.455Z,1.00
2022-09-18T16:33:03.729Z,1.00
2022-09-18T16:35:35.942Z,1.00
2022-09-18T16:38:04.424Z,1.00
2022-09-18T16:40:32.500Z,1.00
2022-09-18T16:43:01.193Z,1.00
2022-09-18T16:45:29.956Z,1.00
2022-09-18T16:48:00.692Z,1.00
2022-09-18T16:50:31.389Z,1.00
2022-09-18T16:53:01.550Z,1.00
2022-09-18T16:55:32.826Z,1.00
2022-09-18T16:58:03.251Z,1.00
2022-09-18T17:00:33.994Z,1.00
2022-09-18T17:03:02.480Z,1.00
2022-09-18T17:05:33.232Z,1.00
2022-09-18T17:08:04.769Z,1.00
2022-09-18T17:10:34.444Z,1.00
2022-09-18T17:13:04.864Z,1.00
2022-09-18T17:15:34.925Z,1.00
2022-09-18T17:18:02.931Z,1.00
2022-09-18T17:20:33.474Z,1.00
2022-09-18T17:23:01.983Z,1.00
2022-09-18T17:25:30.144Z,1.00
2022-09-18T17:28:00.079Z,1.00
2022-09-18T17:30:31.074Z,1.00
2022-09-18T17:35:30.462Z,1.00
2022-09-18T17:37:59.402Z,1.00
2022-09-18T17:40:27.443Z,1.00
2022-09-18T17:42:58.130Z,1.00
2022-09-18T17:45:27.974Z,1.00
2022-09-18T17:48:02.616Z,1.00
2022-09-18T17:50:35.483Z,1.00
2022-09-18T17:53:04.233Z,1.00
2022-09-18T17:55:35.601Z,1.00
2022-09-18T17:58:17.515Z,1.00
2022-09-18T18:00:48.101Z,1.00
2022-09-18T18:03:16.734Z,1.00
2022-09-18T18:05:53.570Z,1.00
2022-09-18T18:08:21.479Z,1.00
2022-09-18T18:10:50.180Z,1.00
2022-09-18T18:15:51.364Z,1.00
2022-09-18T18:18:20.626Z,1.00
2022-09-18T18:20:53.306Z,1.00
2022-09-18T18:23:27.562Z,1.00
2022-09-18T18:25:55.925Z,1.00
2022-09-18T18:28:26.306Z,1.00
2022-09-18T18:31:08.040Z,1.00
2022-09-18T18:33:38.526Z,1.00
2022-09-18T18:36:14.691Z,1.00
2022-09-18T18:38:46.127Z,1.00
2022-09-18T18:41:16.357Z,1.00
2022-09-18T18:44:03.580Z,1.00
2022-09-18T18:46:36.428Z,1.00
2022-09-18T18:49:10.235Z,1.00
2022-09-18T18:51:46.438Z,1.00
2022-09-18T18:54:20.885Z,1.00
2022-09-18T18:56:49.384Z,1.00
2022-09-18T18:59:19.695Z,1.00
2022-09-18T19:01:47.790Z,1.00
2022-09-18T19:04:22.248Z,1.00
2022-09-18T19:06:50.728Z,1.00
2022-09-18T19:09:25.436Z,1.00
2022-09-18T19:11:55.631Z,1.00
2022-09-18T19:14:32.525Z,1.00
2022-09-18T19:17:01.978Z,1.00
2022-09-18T19:19:31.384Z,1.00
2022-09-18T19:22:03.075Z,1.00
2022-09-18T19:24:34.424Z,1.00
2022-09-18T19:27:03.447Z,1.00
2022-09-18T19:29:32.016Z,1.00
2022-09-18T19:32:00.583Z,1.00
2022-09-18T19:34:29.082Z,1.00
2022-09-18T19:36:58.210Z,1.00
2022-09-18T19:39:26.690Z,1.00
2022-09-18T19:42:12.527Z,1.00
2022-09-18T19:45:06.762Z,1.00
2022-09-18T19:47:47.354Z,1.00
2022-09-18T19:50:25.378Z,77.30
2022-09-18T19:52:53.226Z,1.00
2022-09-18T19:55:21.484Z,2.20
2022-09-18T19:57:52.018Z,1.10
2022-09-18T20:00:20.271Z,1.40
2022-09-18T20:02:47.900Z,3.30
2022-09-18T20:05:16.136Z,3.50
2022-09-18T20:10:14.351Z,1.00
2022-09-18T20:12:42.626Z,11.60
2022-09-18T20:15:11.445Z,15.60
2022-09-18T20:17:39.462Z,16.40
2022-09-18T20:20:15.641Z,17.00
2022-09-18T20:22:44.228Z,16.50
2022-09-18T20:25:12.414Z,99.90
2022-09-18T20:27:41.923Z,20.40
2022-09-18T20:30:12.802Z,20.90
2022-09-18T20:32:40.288Z,22.20
2022-09-18T20:35:08.133Z,21.50
2022-09-18T20:37:36.323Z,23.70
2022-09-18T20:40:06.084Z,23.40
2022-09-18T20:42:34.694Z,25.00
2022-09-18T20:45:02.789Z,25.90
2022-09-18T20:47:35.478Z,28.90
2022-09-18T20:50:06.750Z,37.50
2022-09-18T20:52:42.211Z,43.20
2022-09-18T20:55:12.724Z,44.30
2022-09-18T20:57:41.305Z,44.80
2022-09-18T21:00:11.076Z,45.30
2022-09-18T21:02:38.517Z,46.80
2022-09-18T21:05:11.678Z,47.20
2022-09-18T21:07:40.030Z,48.00
2022-09-18T21:10:09.941Z,47.30
2022-09-18T21:12:40.201Z,46.50
2022-09-18T21:15:11.414Z,46.40
2022-09-18T21:17:40.359Z,48.80
2022-09-18T21:20:09.562Z,52.90
2022-09-18T21:22:57.655Z,55.50
2022-09-18T21:25:26.568Z,57.20
2022-09-18T21:27:55.166Z,59.20
2022-09-18T21:30:25.798Z,60.90
2022-09-18T21:32:55.800Z,61.30
2022-09-18T21:35:23.638Z,61.30
2022-09-18T21:37:51.997Z,61.90
2022-09-18T21:40:19.885Z,65.70
2022-09-18T21:42:47.799Z,68.20
2022-09-18T21:45:20.780Z,71.10
2022-09-18T21:47:50.184Z,71.00
2022-09-18T21:50:18.422Z,68.80
2022-09-18T21:52:46.250Z,70.10
2022-09-18T21:55:14.793Z,69.50
2022-09-18T21:57:42.364Z,73.30
2022-09-18T22:00:10.430Z,76.00
2022-09-18T22:02:43.646Z,77.90
2022-09-18T22:05:12.342Z,79.30
2022-09-18T22:07:41.400Z,76.90
2022-09-18T22:10:09.717Z,74.20
2022-09-18T22:12:39.038Z,74.10
2022-09-18T22:15:07.531Z,74.00
2022-09-18T22:17:35.783Z,75.60
2022-09-18T22:20:04.429Z,77.30
2022-09-18T22:22:32.548Z,78.20
2022-09-18T22:25:00.409Z,82.40
2022-09-18T22:27:27.706Z,83.50
2022-09-18T22:29:56.036Z,86.00
2022-09-18T22:32:24.267Z,84.40
2022-09-18T22:34:53.235Z,87.10
2022-09-18T22:37:20.623Z,85.50
2022-09-18T22:39:48.041Z,88.60
2022-09-18T22:42:16.181Z,93.90
2022-09-18T22:44:44.836Z,89.90
2022-09-18T22:47:12.903Z,89.80
2022-09-18T22:49:40.406Z,90.90
2022-09-18T22:52:07.810Z,91.70
2022-09-18T22:54:35.963Z,91.50
2022-09-18T22:57:03.935Z,91.80
2022-09-18T22:59:31.259Z,91.40
2022-09-18T23:02:03.158Z,91.90
2022-09-18T23:04:33.801Z,92.80
2022-09-18T23:07:02.606Z,92.70
2022-09-18T23:09:31.444Z,91.70
2022-09-18T23:11:59.924Z,91.30
2022-09-18T23:14:29.586Z,90.40
2022-09-18T23:16:58.564Z,89.70
2022-09-18T23:19:28.674Z,90.30
2022-09-18T23:21:58.392Z,88.00
2022-09-18T23:24:26.458Z,87.90
2022-09-18T23:26:57.542Z,86.00
2022-09-18T23:29:26.290Z,86.20
2022-09-18T23:31:55.331Z,88.30
2022-09-18T23:34:24.503Z,88.70
2022-09-18T23:36:54.360Z,90.10
2022-09-18T23:39:32.352Z,91.10
2022-09-18T23:42:01.718Z,89.70
2022-09-18T23:44:31.436Z,90.30
2022-09-18T23:47:00.253Z,87.60
2022-09-18T23:49:29.250Z,90.60
2022-09-18T23:51:57.694Z,89.90
2022-09-18T23:54:27.750Z,90.90
2022-09-18T23:56:55.708Z,88.80
2022-09-18T23:59:24.896Z,86.60
